Time;durP1;ratioP1;P1;durP2;ratioP2;P2;SDS_P1;SDS_P2;PMS_P1;PMS_P2;Temp;Humidity;BMP_temperature;BMP_pressure;BME280_temperature;BME280_humidity;BME280_pressure;Samples;Min_cycle;Max_cycle;Signal;HPM_P1;HPM_P2
2023/09/08 00:00:35;;;;;;;8.52;4.60;;;;;;;;;;5100593;28;20226;-70
2023/09/08 00:03:03;;;;;;;5.75;4.53;;;;;;;;;;5100459;28;20232;-69
2023/09/08 00:05:31;;;;;;;8.55;5.10;;;;;;;;;;5100336;28;20236;-68
2023/09/08 00:07:59;;;;;;;6.22;4.82;;;;;;;;;;5100526;28;20206;-70
2023/09/08 00:10:27;;;;;;;6.68;4.18;;;;;;;;;;5100608;28;20237;-70
2023/09/08 00:12:55;;;;;;;5.60;4.50;;;;;;;;;;5100411;28;20547;-70
2023/09/08 00:15:25;;;;;;;6.05;4.38;;;;;;;;;;5100483;28;20212;-69
2023/09/08 00:17:53;;;;;;;4.93;3.80;;;;;;;;;;5100285;28;20206;-70
2023/09/08 00:20:21;;;;;;;8.15;3.95;;;;;;;;;;5100267;28;20226;-69
2023/09/08 00:22:49;;;;;;;9.63;4.65;;;;;;;;;;5100130;28;20272;-70
2023/09/08 00:25:17;;;;;;;6.67;3.80;;;;;;;;;;5100368;28;20233;-69
2023/09/08 00:27:45;;;;;;;4.50;3.90;;;;;;;;;;5100251;28;20206;-69
2023/09/08 00:30:14;;;;;;;4.60;3.47;;;;;;;;;;5099948;28;20225;-70
2023/09/08 00:32:43;;;;;;;5.22;3.78;;;;;;;;;;5099889;28;20219;-68
2023/09/08 00:35:13;;;;;;;5.17;3.53;;;;;;;;;;5099903;28;20719;-68
2023/09/08 00:37:41;;;;;;;4.03;3.57;;;;;;;;;;5099081;28;20244;-68
2023/09/08 00:40:09;;;;;;;6.67;3.90;;;;;;;;;;5099819;28;20228;-68
2023/09/08 00:42:37;;;;;;;5.60;3.50;;;;;;;;;;5099663;28;20225;-70
2023/09/08 00:45:06;;;;;;;7.47;3.38;;;;;;;;;;5099689;28;20236;-68
2023/09/08 00:47:34;;;;;;;4.97;3.47;;;;;;;;;;5099630;28;20249;-68
2023/09/08 00:50:04;;;;;;;6.63;3.30;;;;;;;;;;5099765;28;20259;-70
2023/09/08 00:52:33;;;;;;;4.87;3.57;;;;;;;;;;5099753;28;20209;-68
2023/09/08 00:55:02;;;;;;;3.53;3.20;;;;;;;;;;5099167;28;20209;-70
2023/09/08 00:57:30;;;;;;;3.60;3.30;;;;;;;;;;5099143;28;20591;-70
2023/09/08 00:59:58;;;;;;;3.90;3.50;;;;;;;;;;5099863;28;20253;-68
2023/09/08 01:02:27;;;;;;;3.50;3.20;;;;;;;;;;5085458;28;20655;-68
2023/09/08 01:04:59;;;;;;;3.42;3.13;;;;;;;;;;5096239;28;20213;-68
2023/09/08 01:07:30;;;;;;;6.37;3.50;;;;;;;;;;5096584;28;20202;-68
2023/09/08 01:10:03;;;;;;;4.00;3.57;;;;;;;;;;5098499;28;20646;-70
2023/09/08 01:12:33;;;;;;;6.13;3.53;;;;;;;;;;5097456;28;20200;-69
2023/09/08 01:15:01;;;;;;;4.70;3.00;;;;;;;;;;5098935;28;20230;-69
2023/09/08 01:17:29;;;;;;;3.53;3.23;;;;;;;;;;5098335;28;20265;-68
2023/09/08 01:19:57;;;;;;;4.23;3.00;;;;;;;;;;5098546;28;20266;-70
2023/09/08 01:22:38;;;;;;;3.33;3.03;;;;;;;;;;5098944;28;20201;-71
2023/09/08 01:25:19;;;;;;;3.88;3.10;;;;;;;;;;5096515;28;20200;-68
2023/09/08 01:27:53;;;;;;;5.20;3.00;;;;;;;;;;5097021;28;20208;-68
2023/09/08 01:30:24;;;;;;;3.67;2.87;;;;;;;;;;5096122;28;20227;-70
2023/09/08 01:32:53;;;;;;;3.40;3.07;;;;;;;;;;5098628;28;20658;-68
2023/09/08 01:35:22;;;;;;;4.23;3.67;;;;;;;;;;5096031;28;20232;-69
2023/09/08 01:37:50;;;;;;;3.90;3.23;;;;;;;;;;5098238;28;20558;-70
2023/09/08 01:40:19;;;;;;;4.10;3.70;;;;;;;;;;5097815;28;20223;-70
2023/09/08 01:42:48;;;;;;;6.17;4.13;;;;;;;;;;5098465;28;20203;-69
2023/09/08 01:45:16;;;;;;;5.47;4.30;;;;;;;;;;5098120;28;20686;-70
2023/09/08 01:47:45;;;;;;;9.37;4.50;;;;;;;;;;5095651;28;20202;-70
2023/09/08 01:50:13;;;;;;;7.90;5.07;;;;;;;;;;5098317;28;20213;-70
2023/09/08 01:52:41;;;;;;;7.80;5.13;;;;;;;;;;5093007;28;20202;-71
2023/09/08 01:55:11;;;;;;;5.87;5.23;;;;;;;;;;5098073;28;20250;-70
2023/09/08 01:57:41;;;;;;;5.87;4.80;;;;;;;;;;5098052;28;20249;-69
2023/09/08 02:00:10;;;;;;;9.13;5.60;;;;;;;;;;5096126;28;20226;-69
2023/09/08 02:02:38;;;;;;;9.50;6.53;;;;;;;;;;5097695;28;20245;-71
2023/09/08 02:05:07;;;;;;;7.03;5.47;;;;;;;;;;5097790;28;20231;-69
2023/09/08 02:07:36;;;;;;;7.33;6.33;;;;;;;;;;5097849;28;20226;-70
2023/09/08 02:10:04;;;;;;;8.70;6.60;;;;;;;;;;5095209;28;20269;-70
2023/09/08 02:12:32;;;;;;;8.33;6.80;;;;;;;;;;5098027;28;20201;-70
2023/09/08 02:15:03;;;;;;;6.93;6.23;;;;;;;;;;5097744;28;20202;-70
2023/09/08 02:17:31;;;;;;;9.50;5.60;;;;;;;;;;5097464;28;20219;-70
2023/09/08 02:19:59;;;;;;;6.33;5.27;;;;;;;;;;5097529;28;20266;-69
2023/09/08 02:22:27;;;;;;;6.93;5.17;;;;;;;;;;5098049;28;20195;-70
2023/09/08 02:24:57;;;;;;;6.60;5.53;;;;;;;;;;5097443;28;20199;-70
2023/09/08 02:27:28;;;;;;;5.17;4.63;;;;;;;;;;5095762;28;20256;-69
2023/09/08 02:29:58;;;;;;;5.87;4.27;;;;;;;;;;5097348;28;20223;-69
2023/09/08 02:32:28;;;;;;;5.67;4.03;;;;;;;;;;5097406;28;20198;-70
2023/09/08 02:34:56;;;;;;;7.00;4.33;;;;;;;;;;5097530;28;20720;-69
2023/09/08 02:37:24;;;;;;;5.20;4.10;;;;;;;;;;5094918;28;20267;-69
2023/09/08 02:39:53;;;;;;;5.43;3.93;;;;;;;;;;5096581;28;20198;-70
2023/09/08 02:42:21;;;;;;;9.93;4.00;;;;;;;;;;5097004;28;20263;-70
2023/09/08 02:44:49;;;;;;;5.70;3.40;;;;;;;;;;5097456;28;20193;-71
2023/09/08 02:47:17;;;;;;;5.93;3.93;;;;;;;;;;5096874;28;20275;-69
2023/09/08 02:49:49;;;;;;;4.50;3.17;;;;;;;;;;5097556;28;20206;-71
2023/09/08 02:52:19;;;;;;;3.67;2.77;;;;;;;;;;5097263;28;20684;-70
2023/09/08 02:54:47;;;;;;;5.13;3.33;;;;;;;;;;5097185;28;20724;-70
2023/09/08 02:57:16;;;;;;;4.50;3.57;;;;;;;;;;5096888;28;20231;-69
2023/09/08 02:59:49;;;;;;;5.23;3.30;;;;;;;;;;5094931;28;20256;-68
2023/09/08 03:02:17;;;;;;;3.50;2.90;;;;;;;;;;5100606;28;20216;-69
2023/09/08 03:04:47;;;;;;;4.97;2.80;;;;;;;;;;5101418;28;20250;-68
2023/09/08 03:07:15;;;;;;;3.93;3.10;;;;;;;;;;5100965;28;20221;-69
2023/09/08 03:09:43;;;;;;;3.33;2.80;;;;;;;;;;5101430;28;20256;-68
2023/09/08 03:12:11;;;;;;;6.70;3.50;;;;;;;;;;5101123;28;20220;-68
2023/09/08 03:14:39;;;;;;;5.77;3.57;;;;;;;;;;5101088;28;20209;-68
2023/09/08 03:17:07;;;;;;;4.33;3.30;;;;;;;;;;5100944;28;20205;-68
2023/09/08 03:19:35;;;;;;;3.83;3.00;;;;;;;;;;5101189;28;20214;-68
2023/09/08 03:22:05;;;;;;;3.77;2.77;;;;;;;;;;5101663;28;20218;-68
2023/09/08 03:24:33;;;;;;;3.73;2.60;;;;;;;;;;5101154;28;20208;-68
2023/09/08 03:27:01;;;;;;;4.90;2.90;;;;;;;;;;5101357;28;20231;-68
2023/09/08 03:29:29;;;;;;;3.17;2.60;;;;;;;;;;5101206;28;20268;-68
2023/09/08 03:31:57;;;;;;;3.37;2.87;;;;;;;;;;5100715;28;20236;-68
2023/09/08 03:34:25;;;;;;;2.70;2.50;;;;;;;;;;5101154;28;20660;-69
2023/09/08 03:36:54;;;;;;;3.20;2.80;;;;;;;;;;5101311;28;20261;-67
2023/09/08 03:39:24;;;;;;;3.27;2.67;;;;;;;;;;5100870;28;20204;-68
2023/09/08 03:41:52;;;;;;;3.07;2.53;;;;;;;;;;5100682;28;20231;-67
2023/09/08 03:44:20;;;;;;;2.70;2.50;;;;;;;;;;5100782;28;20694;-68
2023/09/08 03:46:48;;;;;;;4.93;3.10;;;;;;;;;;5100421;28;20223;-67
2023/09/08 03:49:16;;;;;;;4.67;3.10;;;;;;;;;;5101059;28;20298;-67
2023/09/08 03:51:44;;;;;;;4.27;2.70;;;;;;;;;;5100647;28;20292;-68
2023/09/08 03:54:12;;;;;;;3.60;2.77;;;;;;;;;;5096363;28;20202;-67
2023/09/08 03:56:41;;;;;;;4.27;2.77;;;;;;;;;;5094677;28;20215;-68
2023/09/08 03:59:09;;;;;;;3.10;2.80;;;;;;;;;;5100403;28;20586;-67
2023/09/08 04:01:37;;;;;;;5.37;2.77;;;;;;;;;;5100395;28;20236;-69
2023/09/08 04:04:05;;;;;;;3.40;2.90;;;;;;;;;;5100787;28;20254;-67
2023/09/08 04:06:33;;;;;;;4.20;2.83;;;;;;;;;;5100260;28;20614;-68
2023/09/08 04:09:02;;;;;;;2.60;2.40;;;;;;;;;;5100609;28;20206;-68
2023/09/08 04:11:30;;;;;;;5.13;2.90;;;;;;;;;;5099965;28;20239;-68
2023/09/08 04:13:59;;;;;;;2.90;2.70;;;;;;;;;;5099755;28;20209;-68
2023/09/08 04:16:27;;;;;;;3.17;2.80;;;;;;;;;;5099901;28;20210;-68
2023/09/08 04:18:55;;;;;;;3.70;2.83;;;;;;;;;;5100513;28;20212;-68
2023/09/08 04:21:23;;;;;;;2.87;2.67;;;;;;;;;;5099994;28;20592;-68
2023/09/08 04:23:51;;;;;;;3.27;2.93;;;;;;;;;;5099993;28;20582;-68
2023/09/08 04:26:19;;;;;;;4.27;2.73;;;;;;;;;;5100300;28;20244;-67
2023/09/08 04:28:47;;;;;;;3.40;2.77;;;;;;;;;;5100059;28;20233;-68
2023/09/08 04:31:18;;;;;;;3.87;2.60;;;;;;;;;;5099611;28;20324;-68
2023/09/08 04:33:46;;;;;;;3.23;2.83;;;;;;;;;;5100097;28;20604;-67
2023/09/08 04:36:15;;;;;;;2.67;2.47;;;;;;;;;;5100059;28;20201;-67
2023/09/08 04:38:44;;;;;;;2.80;2.60;;;;;;;;;;5099575;28;20239;-68
2023/09/08 04:41:12;;;;;;;3.13;2.57;;;;;;;;;;5099609;28;20219;-70
2023/09/08 04:43:40;;;;;;;5.93;3.10;;;;;;;;;;5099974;28;20214;-68
2023/09/08 04:46:08;;;;;;;4.07;3.23;;;;;;;;;;5099411;28;20219;-70
2023/09/08 04:48:38;;;;;;;4.53;2.70;;;;;;;;;;5098683;28;20234;-68
2023/09/08 04:51:08;;;;;;;3.70;2.87;;;;;;;;;;5097940;28;20326;-68
2023/09/08 04:53:36;;;;;;;4.30;2.87;;;;;;;;;;5099241;28;20210;-69
2023/09/08 04:56:04;;;;;;;3.00;2.60;;;;;;;;;;5096816;28;20203;-69
2023/09/08 04:58:32;;;;;;;3.23;2.80;;;;;;;;;;5098868;28;20231;-68
2023/09/08 05:01:01;;;;;;;3.87;2.70;;;;;;;;;;5096048;28;20224;-68
2023/09/08 05:03:30;;;;;;;3.13;2.90;;;;;;;;;;5099206;28;20217;-69
2023/09/08 05:06:01;;;;;;;6.40;2.70;;;;;;;;;;5098746;28;20203;-68
2023/09/08 05:08:29;;;;;;;4.40;3.00;;;;;;;;;;5098798;28;20219;-67
2023/09/08 05:10:57;;;;;;;4.93;3.03;;;;;;;;;;5096409;28;20235;-69
2023/09/08 05:13:26;;;;;;;3.93;2.80;;;;;;;;;;5099395;28;20212;-69
2023/09/08 05:16:00;;;;;;;3.07;2.77;;;;;;;;;;5099086;28;20210;-69
2023/09/08 05:18:28;;;;;;;3.33;2.70;;;;;;;;;;5099236;28;20207;-69
2023/09/08 05:20:56;;;;;;;4.40;2.77;;;;;;;;;;5098766;28;20234;-69
2023/09/08 05:23:26;;;;;;;3.33;2.50;;;;;;;;;;5098538;28;20203;-69
2023/09/08 05:25:54;;;;;;;4.50;2.70;;;;;;;;;;5098809;28;20566;-73
2023/09/08 05:28:22;;;;;;;4.00;2.70;;;;;;;;;;5098045;28;20224;-70
2023/09/08 05:30:51;;;;;;;4.20;2.80;;;;;;;;;;5092776;28;20315;-71
2023/09/08 05:33:19;;;;;;;3.20;2.90;;;;;;;;;;5092823;28;20674;-72
2023/09/08 05:35:48;;;;;;;4.90;2.80;;;;;;;;;;5098429;28;20209;-71
2023/09/08 05:38:16;;;;;;;3.23;2.93;;;;;;;;;;5098332;28;20650;-71
2023/09/08 05:40:45;;;;;;;3.50;3.00;;;;;;;;;;5098638;28;20229;-71
2023/09/08 05:43:13;;;;;;;4.03;2.50;;;;;;;;;;5098618;28;20225;-71
2023/09/08 05:45:44;;;;;;;5.43;3.00;;;;;;;;;;5098773;28;20215;-71
2023/09/08 05:48:12;;;;;;;3.27;2.97;;;;;;;;;;5098765;28;20236;-70
2023/09/08 05:50:40;;;;;;;8.27;3.00;;;;;;;;;;5098298;28;20310;-69
2023/09/08 05:53:08;;;;;;;4.87;3.43;;;;;;;;;;5098086;28;20500;-70
2023/09/08 05:55:36;;;;;;;3.80;2.87;;;;;;;;;;5095675;28;20218;-70
2023/09/08 05:58:07;;;;;;;5.20;3.07;;;;;;;;;;5090967;28;20286;-70
2023/09/08 06:00:35;;;;;;;3.87;3.00;;;;;;;;;;5096538;28;20989;-70
2023/09/08 06:03:05;;;;;;;3.83;2.60;;;;;;;;;;5097773;28;20667;-70
2023/09/08 06:05:33;;;;;;;5.47;3.27;;;;;;;;;;5102665;28;20614;-70
2023/09/08 06:08:01;;;;;;;3.47;3.17;;;;;;;;;;5097982;28;20690;-69
2023/09/08 06:10:34;;;;;;;4.93;3.43;;;;;;;;;;5098253;28;20325;-69
2023/09/08 06:13:02;;;;;;;5.93;3.70;;;;;;;;;;5097990;28;20207;-69
2023/09/08 06:15:32;;;;;;;4.00;3.43;;;;;;;;;;5097973;28;20615;-70
2023/09/08 06:18:00;;;;;;;3.13;2.93;;;;;;;;;;5097678;28;20204;-70
2023/09/08 06:20:28;;;;;;;4.37;2.73;;;;;;;;;;5097954;28;20231;-69
2023/09/08 06:22:57;;;;;;;4.57;3.60;;;;;;;;;;5107758;28;20208;-70
2023/09/08 06:25:25;;;;;;;17.30;4.23;;;;;;;;;;5088671;28;20226;-70
2023/09/08 06:27:53;;;;;;;3.23;2.90;;;;;;;;;;5098081;28;20228;-68
2023/09/08 06:30:21;;;;;;;3.43;2.90;;;;;;;;;;5097521;28;20244;-67
2023/09/08 06:32:51;;;;;;;5.07;3.03;;;;;;;;;;5097826;28;20282;-69
2023/09/08 06:35:19;;;;;;;4.20;2.87;;;;;;;;;;5091896;28;20201;-65
2023/09/08 06:37:47;;;;;;;5.37;3.23;;;;;;;;;;5092684;28;20696;-66
2023/09/08 06:40:15;;;;;;;5.83;2.93;;;;;;;;;;5108459;28;20227;-67
2023/09/08 06:42:43;;;;;;;7.70;3.67;;;;;;;;;;5098342;28;20205;-74
2023/09/08 06:45:14;;;;;;;3.60;3.10;;;;;;;;;;5098124;28;20205;-68
2023/09/08 06:47:43;;;;;;;4.83;3.50;;;;;;;;;;5097461;28;20204;-68
2023/09/08 06:50:13;;;;;;;7.47;3.23;;;;;;;;;;5097497;28;20249;-69
2023/09/08 06:52:44;;;;;;;2.97;2.77;;;;;;;;;;5097661;28;20204;-70
2023/09/08 06:55:13;;;;;;;4.50;3.10;;;;;;;;;;5089438;28;20252;-69
2023/09/08 06:57:41;;;;;;;4.33;3.27;;;;;;;;;;5099180;28;20236;-69
2023/09/08 07:00:11;;;;;;;6.33;3.00;;;;;;;;;;5097723;28;20293;-67
2023/09/08 07:02:39;;;;;;;4.97;3.43;;;;;;;;;;5097063;28;20213;-69
2023/09/08 07:05:08;;;;;;;7.37;4.07;;;;;;;;;;5097702;28;20236;-71
2023/09/08 07:07:38;;;;;;;5.57;3.33;;;;;;;;;;5097408;28;20547;-70
2023/09/08 07:10:06;;;;;;;7.67;3.37;;;;;;;;;;5097513;28;20233;-71
2023/09/08 07:12:34;;;;;;;5.50;3.20;;;;;;;;;;5101629;28;20270;-69
2023/09/08 07:15:02;;;;;;;5.60;3.13;;;;;;;;;;5100676;28;20209;-68
2023/09/08 07:17:30;;;;;;;3.47;3.17;;;;;;;;;;5097096;28;20215;-67
2023/09/08 07:19:59;;;;;;;5.57;4.03;;;;;;;;;;5097589;28;20713;-68
2023/09/08 07:22:28;;;;;;;5.87;3.57;;;;;;;;;;5097140;28;20303;-70
2023/09/08 07:24:57;;;;;;;3.50;3.20;;;;;;;;;;5094540;28;20210;-69
2023/09/08 07:27:25;;;;;;;4.77;3.20;;;;;;;;;;5097156;28;20662;-69
2023/09/08 07:29:54;;;;;;;3.53;3.10;;;;;;;;;;5097564;28;20278;-69
2023/09/08 07:32:22;;;;;;;6.07;3.70;;;;;;;;;;5097065;28;20206;-69
2023/09/08 07:34:54;;;;;;;5.07;3.17;;;;;;;;;;5097174;28;20252;-70
2023/09/08 07:37:23;;;;;;;4.37;3.80;;;;;;;;;;5096993;28;20229;-69
2023/09/08 07:39:52;;;;;;;7.40;4.10;;;;;;;;;;5097163;28;20211;-70
2023/09/08 07:42:25;;;;;;;6.10;3.60;;;;;;;;;;5097002;28;20209;-70
2023/09/08 07:44:53;;;;;;;4.00;3.20;;;;;;;;;;5097481;28;20223;-69
2023/09/08 07:47:21;;;;;;;3.93;3.10;;;;;;;;;;5103847;28;20219;-71
2023/09/08 07:49:49;;;;;;;3.83;3.30;;;;;;;;;;5100477;28;20221;-71
2023/09/08 07:52:17;;;;;;;3.07;2.73;;;;;;;;;;5096489;28;20283;-71
2023/09/08 07:54:45;;;;;;;9.73;4.00;;;;;;;;;;5100618;28;20211;-71
2023/09/08 07:57:14;;;;;;;3.93;3.53;;;;;;;;;;5100369;28;20266;-72
2023/09/08 07:59:43;;;;;;;6.37;3.27;;;;;;;;;;5100580;28;20211;-71
2023/09/08 08:02:11;;;;;;;4.83;3.23;;;;;;;;;;5100306;28;20245;-72
2023/09/08 08:04:39;;;;;;;4.37;3.27;;;;;;;;;;5112092;28;20210;-72
2023/09/08 08:07:07;;;;;;;7.73;3.40;;;;;;;;;;5100658;28;20215;-72
2023/09/08 08:09:35;;;;;;;8.67;3.30;;;;;;;;;;5100317;28;20224;-72
2023/09/08 08:12:04;;;;;;;4.43;3.40;;;;;;;;;;5100431;28;20676;-71
2023/09/08 08:14:32;;;;;;;5.87;3.30;;;;;;;;;;5100125;28;20578;-71
2023/09/08 08:17:04;;;;;;;6.33;3.50;;;;;;;;;;5100351;28;20207;-71
2023/09/08 08:19:32;;;;;;;9.53;3.10;;;;;;;;;;5100234;28;20203;-70
2023/09/08 08:22:00;;;;;;;4.80;3.30;;;;;;;;;;5105258;28;20225;-72
2023/09/08 08:24:28;;;;;;;5.30;3.40;;;;;;;;;;5089966;28;20579;-72
2023/09/08 08:26:56;;;;;;;3.83;3.50;;;;;;;;;;5099931;28;20692;-71
2023/09/08 08:29:24;;;;;;;6.40;2.90;;;;;;;;;;5099935;28;20282;-70
2023/09/08 08:31:52;;;;;;;4.77;3.03;;;;;;;;;;5099810;28;20281;-71
2023/09/08 08:34:21;;;;;;;3.53;3.20;;;;;;;;;;5099767;28;20236;-71
2023/09/08 08:36:49;;;;;;;4.30;3.03;;;;;;;;;;5085425;28;20203;-71
2023/09/08 08:39:17;;;;;;;3.10;2.83;;;;;;;;;;5093750;28;20258;-72
2023/09/08 08:41:46;;;;;;;6.57;3.80;;;;;;;;;;5099871;28;20236;-71
2023/09/08 08:44:16;;;;;;;3.93;3.53;;;;;;;;;;5099856;28;20200;-73
2023/09/08 08:46:44;;;;;;;4.15;3.13;;;;;;;;;;5099399;28;20323;-72
2023/09/08 08:49:18;;;;;;;3.58;3.03;;;;;;;;;;5099490;28;20722;-72
2023/09/08 08:51:48;;;;;;;3.55;2.92;;;;;;;;;;5099579;28;20741;-72
2023/09/08 08:54:16;;;;;;;5.43;3.00;;;;;;;;;;5102425;28;20552;-72
2023/09/08 08:56:44;;;;;;;6.18;3.30;;;;;;;;;;5104861;28;20215;-72
2023/09/08 08:59:13;;;;;;;4.20;3.03;;;;;;;;;;5099280;28;20574;-72
2023/09/08 09:01:42;;;;;;;10.52;3.50;;;;;;;;;;5099149;28;20350;-72
2023/09/08 09:04:11;;;;;;;3.33;3.03;;;;;;;;;;5099498;28;20464;-70
2023/09/08 09:06:39;;;;;;;5.40;2.95;;;;;;;;;;5099624;28;20233;-71
2023/09/08 09:09:10;;;;;;;4.47;3.25;;;;;;;;;;5099553;28;20205;-71
2023/09/08 09:11:38;;;;;;;6.00;3.35;;;;;;;;;;5102256;28;20755;-71
2023/09/08 09:14:06;;;;;;;6.65;2.65;;;;;;;;;;5106200;28;20678;-72
2023/09/08 09:16:39;;;;;;;7.53;3.00;;;;;;;;;;5098714;28;20207;-71
2023/09/08 09:19:08;;;;;;;4.65;2.95;;;;;;;;;;5099214;28;20216;-72
2023/09/08 09:21:46;;;;;;;4.15;3.13;;;;;;;;;;5098898;28;20300;-72
2023/09/08 09:24:29;;;;;;;3.40;3.10;;;;;;;;;;5098391;28;20246;-72
2023/09/08 09:26:57;;;;;;;5.15;3.17;;;;;;;;;;5098777;28;20208;-71
2023/09/08 09:29:26;;;;;;;3.30;3.00;;;;;;;;;;5103950;28;20210;-72
2023/09/08 09:31:56;;;;;;;4.90;2.90;;;;;;;;;;5098531;28;20247;-71
2023/09/08 09:34:25;;;;;;;3.55;3.05;;;;;;;;;;5098810;28;20212;-71
2023/09/08 09:36:53;;;;;;;3.40;2.83;;;;;;;;;;5098747;28;20201;-71
2023/09/08 09:39:24;;;;;;;4.07;3.05;;;;;;;;;;5098290;28;20216;-71
2023/09/08 09:41:54;;;;;;;4.07;3.28;;;;;;;;;;5098614;28;20224;-72
2023/09/08 09:44:22;;;;;;;5.30;3.20;;;;;;;;;;5098387;28;20201;-72
2023/09/08 09:46:52;;;;;;;4.07;2.92;;;;;;;;;;5098586;28;20205;-72
2023/09/08 09:49:21;;;;;;;3.25;2.95;;;;;;;;;;5098643;28;20235;-71
2023/09/08 09:51:50;;;;;;;4.28;2.75;;;;;;;;;;5098029;28;20726;-72
2023/09/08 09:54:18;;;;;;;2.83;2.63;;;;;;;;;;5098109;28;20255;-69
2023/09/08 09:56:48;;;;;;;3.38;3.08;;;;;;;;;;5098363;28;20212;-71
2023/09/08 09:59:18;;;;;;;7.65;3.17;;;;;;;;;;5098528;28;20231;-72
2023/09/08 10:01:46;;;;;;;3.90;2.67;;;;;;;;;;5097930;28;20221;-72
2023/09/08 10:04:15;;;;;;;5.05;2.97;;;;;;;;;;5105615;28;20262;-69
2023/09/08 10:06:44;;;;;;;5.00;3.05;;;;;;;;;;5098086;28;20205;-71
2023/09/08 10:09:13;;;;;;;4.53;3.20;;;;;;;;;;5098230;28;20212;-72
2023/09/08 10:11:43;;;;;;;4.68;2.97;;;;;;;;;;5097741;28;20232;-72
2023/09/08 10:14:13;;;;;;;7.18;3.15;;;;;;;;;;5097814;28;20243;-69
2023/09/08 10:16:44;;;;;;;3.35;3.05;;;;;;;;;;5097118;28;20201;-70
2023/09/08 10:19:12;;;;;;;3.92;2.70;;;;;;;;;;5098079;28;20205;-69
2023/09/08 10:21:41;;;;;;;5.97;3.60;;;;;;;;;;5098018;28;20233;-71
2023/09/08 10:24:14;;;;;;;9.52;3.55;;;;;;;;;;5097656;28;20208;-70
2023/09/08 10:26:45;;;;;;;7.43;3.58;;;;;;;;;;5097459;28;20449;-72
2023/09/08 10:29:15;;;;;;;4.28;3.65;;;;;;;;;;5095017;28;20205;-70
2023/09/08 10:31:44;;;;;;;5.20;3.80;;;;;;;;;;5097555;28;20229;-70
2023/09/08 10:34:12;;;;;;;5.25;3.28;;;;;;;;;;5097785;28;20201;-71
2023/09/08 10:36:41;;;;;;;5.65;3.42;;;;;;;;;;5098033;28;20213;-69
2023/09/08 10:39:40;;;;;;;5.72;3.10;;;;;;;;;;5089056;28;20198;-70
2023/09/08 10:42:25;;;;;;;4.05;3.20;;;;;;;;;;5043968;28;20214;-70
2023/09/08 10:44:58;;;;;;;4.97;3.45;;;;;;;;;;5090571;28;20197;-69
2023/09/08 10:47:28;;;;;;;4.13;3.55;;;;;;;;;;5096573;28;20280;-70
2023/09/08 10:49:58;;;;;;;3.92;3.22;;;;;;;;;;5097623;28;20307;-69
2023/09/08 10:52:28;;;;;;;5.47;3.33;;;;;;;;;;5097572;28;20208;-69
2023/09/08 10:54:56;;;;;;;3.72;3.33;;;;;;;;;;5097674;28;20212;-68
2023/09/08 10:57:25;;;;;;;5.85;3.20;;;;;;;;;;5097610;28;20259;-67
2023/09/08 10:59:54;;;;;;;5.13;3.08;;;;;;;;;;5097684;28;20284;-68
2023/09/08 11:02:35;;;;;;;5.13;3.30;;;;;;;;;;5091710;28;20194;-67
2023/09/08 11:05:04;;;;;;;4.50;3.13;;;;;;;;;;5097301;28;20266;-67
2023/09/08 11:07:33;;;;;;;3.08;2.83;;;;;;;;;;5097632;28;20205;-68
2023/09/08 11:10:01;;;;;;;5.97;3.58;;;;;;;;;;5097587;28;20228;-68
2023/09/08 11:12:30;;;;;;;6.72;3.20;;;;;;;;;;5097524;28;20210;-68
2023/09/08 11:15:00;;;;;;;6.00;3.40;;;;;;;;;;5097393;28;20205;-67
2023/09/08 11:17:28;;;;;;;4.22;3.25;;;;;;;;;;5097130;28;20574;-67
2023/09/08 11:19:58;;;;;;;5.50;3.47;;;;;;;;;;5097341;28;20623;-68
2023/09/08 11:22:26;;;;;;;5.93;3.20;;;;;;;;;;5099382;28;20569;-68
2023/09/08 11:24:56;;;;;;;3.58;3.00;;;;;;;;;;5096202;28;20198;-68
2023/09/08 11:27:24;;;;;;;5.20;2.92;;;;;;;;;;5101415;28;20264;-68
2023/09/08 11:29:52;;;;;;;3.97;3.38;;;;;;;;;;5101016;28;20213;-67
2023/09/08 11:32:20;;;;;;;4.93;3.03;;;;;;;;;;5101099;28;20305;-68
2023/09/08 11:34:49;;;;;;;6.43;3.20;;;;;;;;;;5100916;28;20579;-69
2023/09/08 11:37:18;;;;;;;4.70;3.17;;;;;;;;;;5100914;28;20210;-69
2023/09/08 11:39:47;;;;;;;4.10;3.25;;;;;;;;;;5101224;28;20216;-68
2023/09/08 11:42:16;;;;;;;4.30;3.45;;;;;;;;;;5100769;28;20209;-67
2023/09/08 11:44:44;;;;;;;5.13;3.65;;;;;;;;;;5101126;28;20220;-67
2023/09/08 11:47:12;;;;;;;5.43;3.72;;;;;;;;;;5101086;28;20213;-67
2023/09/08 11:49:40;;;;;;;3.40;3.10;;;;;;;;;;5101265;28;20209;-69
2023/09/08 11:52:08;;;;;;;3.30;3.03;;;;;;;;;;5100637;28;20723;-68
2023/09/08 11:54:38;;;;;;;4.75;3.60;;;;;;;;;;5100931;28;20212;-67
2023/09/08 11:57:22;;;;;;;3.92;3.53;;;;;;;;;;5095654;28;20315;-68
2023/09/08 11:59:51;;;;;;;4.43;3.40;;;;;;;;;;5100651;28;20209;-68
2023/09/08 12:02:19;;;;;;;5.13;3.28;;;;;;;;;;5100278;28;20270;-68
2023/09/08 12:04:47;;;;;;;3.35;3.03;;;;;;;;;;5100410;28;20228;-69
2023/09/08 12:07:16;;;;;;;3.83;2.97;;;;;;;;;;5100406;28;20235;-68
2023/09/08 12:09:46;;;;;;;3.53;3.22;;;;;;;;;;5100106;28;20209;-67
2023/09/08 12:12:14;;;;;;;4.78;2.83;;;;;;;;;;5092692;28;20220;-69
2023/09/08 12:14:42;;;;;;;3.80;3.00;;;;;;;;;;5096272;28;20216;-69
2023/09/08 12:17:17;;;;;;;8.07;3.15;;;;;;;;;;5100336;28;20300;-69
2023/09/08 12:19:45;;;;;;;5.18;3.08;;;;;;;;;;5100407;28;20243;-67
2023/09/08 12:22:17;;;;;;;3.85;3.55;;;;;;;;;;5100288;28;20209;-68
2023/09/08 12:24:50;;;;;;;5.78;3.33;;;;;;;;;;5100362;28;20205;-67
2023/09/08 12:27:18;;;;;;;3.38;3.08;;;;;;;;;;5100347;28;20209;-69
2023/09/08 12:29:54;;;;;;;4.55;3.17;;;;;;;;;;5100245;28;20207;-67
2023/09/08 12:32:22;;;;;;;3.25;2.97;;;;;;;;;;5099510;28;20319;-68
2023/09/08 12:34:51;;;;;;;3.30;2.75;;;;;;;;;;5099284;28;20209;-68
2023/09/08 12:37:22;;;;;;;8.10;3.03;;;;;;;;;;5099721;28;20609;-67
2023/09/08 12:39:52;;;;;;;3.20;2.92;;;;;;;;;;5099783;28;20223;-67
2023/09/08 12:42:20;;;;;;;3.83;2.92;;;;;;;;;;5099382;28;20229;-68
2023/09/08 12:44:49;;;;;;;6.30;3.28;;;;;;;;;;5097936;28;20571;-69
2023/09/08 12:47:18;;;;;;;3.53;3.17;;;;;;;;;;5097737;28;20209;-68
2023/09/08 12:49:45;;;;;;;4.85;3.17;;;;;;;;;;5097867;28;20654;-69
2023/09/08 12:52:13;;;;;;;3.42;3.13;;;;;;;;;;5097748;28;20229;-67
2023/09/08 12:54:41;;;;;;;8.90;2.90;;;;;;;;;;5097699;28;20296;-67
2023/09/08 12:57:11;;;;;;;4.75;4.30;;;;;;;;;;5097724;28;20201;-67
2023/09/08 12:59:39;;;;;;;6.85;3.45;;;;;;;;;;5099494;28;20232;-68
2023/09/08 13:02:07;;;;;;;3.40;3.10;;;;;;;;;;5099165;28;20205;-67
2023/09/08 13:04:35;;;;;;;3.65;3.15;;;;;;;;;;5099324;28;20205;-68
2023/09/08 13:07:03;;;;;;;4.63;3.15;;;;;;;;;;5094705;28;20231;-70
2023/09/08 13:09:31;;;;;;;3.55;2.78;;;;;;;;;;5099253;28;20212;-69
2023/09/08 13:12:00;;;;;;;3.38;2.83;;;;;;;;;;5099200;28;20278;-68
2023/09/08 13:14:29;;;;;;;4.55;3.15;;;;;;;;;;5099086;28;20731;-68
2023/09/08 13:16:57;;;;;;;3.42;3.05;;;;;;;;;;5098773;28;20668;-68
2023/09/08 13:19:25;;;;;;;4.15;3.33;;;;;;;;;;5098916;28;20208;-67
2023/09/08 13:21:53;;;;;;;5.63;3.00;;;;;;;;;;5098998;28;20225;-67
2023/09/08 13:24:21;;;;;;;3.03;2.83;;;;;;;;;;5098877;28;20212;-68
2023/09/08 13:26:49;;;;;;;6.55;3.08;;;;;;;;;;5099067;28;20263;-67
2023/09/08 13:29:18;;;;;;;3.60;3.05;;;;;;;;;;5099089;28;20235;-67
2023/09/08 13:31:48;;;;;;;4.78;3.35;;;;;;;;;;5098091;28;20229;-72
2023/09/08 13:34:16;;;;;;;6.60;2.90;;;;;;;;;;5098522;28;20254;-72
2023/09/08 13:36:44;;;;;;;3.65;3.17;;;;;;;;;;5098562;28;20197;-71
2023/09/08 13:39:12;;;;;;;3.92;3.10;;;;;;;;;;5098461;28;20205;-72
2023/09/08 13:41:48;;;;;;;4.07;3.72;;;;;;;;;;5096060;28;20217;-72
2023/09/08 13:44:16;;;;;;;4.47;2.95;;;;;;;;;;5097515;28;21527;-74
2023/09/08 13:46:44;;;;;;;4.05;3.17;;;;;;;;;;5095643;28;20722;-75
2023/09/08 13:49:14;;;;;;;3.05;2.85;;;;;;;;;;5098969;28;20201;-73
2023/09/08 13:51:44;;;;;;;5.40;3.17;;;;;;;;;;5095745;28;20288;-74
2023/09/08 13:54:14;;;;;;;4.40;3.13;;;;;;;;;;5098484;28;20223;-73
2023/09/08 13:56:45;;;;;;;3.15;2.90;;;;;;;;;;5096023;28;20258;-74
2023/09/08 13:59:14;;;;;;;4.43;3.35;;;;;;;;;;5093169;28;20989;-73
2023/09/08 14:01:46;;;;;;;4.45;3.05;;;;;;;;;;5095094;28;20290;-73
2023/09/08 14:04:35;;;;;;;4.07;2.85;;;;;;;;;;5098611;28;20258;-73
2023/09/08 14:07:08;;;;;;;7.60;3.08;;;;;;;;;;5085462;28;20235;-73
2023/09/08 14:09:44;;;;;;;4.18;3.40;;;;;;;;;;5097350;28;20292;-73
2023/09/08 14:12:16;;;;;;;3.50;3.20;;;;;;;;;;5095128;28;20652;-74
2023/09/08 14:14:47;;;;;;;3.53;3.17;;;;;;;;;;5089229;28;20710;-74
2023/09/08 14:17:15;;;;;;;3.63;3.33;;;;;;;;;;5097862;28;20205;-74
2023/09/08 14:19:44;;;;;;;3.92;3.50;;;;;;;;;;5098323;28;20205;-73
2023/09/08 14:22:13;;;;;;;5.57;3.88;;;;;;;;;;5098004;28;20275;-74
2023/09/08 14:24:43;;;;;;;5.47;3.33;;;;;;;;;;5098265;28;20210;-72
2023/09/08 14:27:10;;;;;;;5.70;3.22;;;;;;;;;;5098178;28;20205;-74
2023/09/08 14:29:38;;;;;;;3.55;3.22;;;;;;;;;;5097860;28;20672;-73
2023/09/08 14:32:07;;;;;;;3.35;3.10;;;;;;;;;;5097690;28;20211;-74
2023/09/08 14:34:35;;;;;;;4.97;3.42;;;;;;;;;;5098171;28;20259;-72
2023/09/08 14:37:04;;;;;;;3.35;3.05;;;;;;;;;;5098208;28;20240;-74
2023/09/08 14:39:36;;;;;;;5.47;3.55;;;;;;;;;;5097781;28;20209;-73
2023/09/08 14:42:04;;;;;;;3.80;3.40;;;;;;;;;;5097871;28;20205;-73
2023/09/08 14:44:32;;;;;;;3.85;2.97;;;;;;;;;;5097768;28;20205;-72
2023/09/08 14:47:00;;;;;;;5.30;3.33;;;;;;;;;;5097458;28;20201;-73
2023/09/08 14:49:28;;;;;;;4.82;3.40;;;;;;;;;;5097621;28;20675;-74
2023/09/08 14:51:56;;;;;;;3.88;3.42;;;;;;;;;;5097652;28;20788;-73
2023/09/08 14:54:26;;;;;;;4.43;3.90;;;;;;;;;;5097658;28;20271;-74